Terminal Aerodrome Forecast
Issued by NWS

Home | Current Version | Previous Version | Text Only | Print | Product List | Glossary Off
Versions: 1 2 3 4 5 6 7 8 9 10 11 12 13 14 15 16 17 18 19 20 21 22 23 24 25 26 27 28 29 30

000
FTUS43 KGRB 252320
TAFRHI
TAF
KRHI 252320Z 2600/2624 32006KT P6SM OVC018
     FM260800 VRB02KT 4SM BR OVC008
     FM261300 32004KT 6SM BR BKN015 BKN030
     FM261500 32005KT P6SM BKN025
     FM262000 31006KT P6SM SCT030=

USA.gov is the U.S. government's official web portal to all federal, state and local government web resources and services.